createdAt,value
2023-02-04T00:00:15.124Z,8.60
2023-02-04T00:02:42.303Z,8.60
2023-02-04T00:05:12.702Z,8.60
2023-02-04T00:07:41.377Z,8.60
2023-02-04T00:10:08.980Z,8.60
2023-02-04T00:12:36.092Z,8.50
2023-02-04T00:15:02.981Z,8.50
2023-02-04T00:17:29.728Z,8.50
2023-02-04T00:19:56.539Z,8.50
2023-02-04T00:22:23.732Z,8.50
2023-02-04T00:24:50.593Z,8.50
2023-02-04T00:27:17.767Z,8.50
2023-02-04T00:29:44.665Z,8.50
2023-02-04T00:32:11.596Z,8.50
2023-02-04T00:34:38.563Z,8.50
2023-02-04T00:37:08.520Z,8.50
2023-02-04T00:39:35.280Z,8.50
2023-02-04T00:42:02.121Z,8.50
2023-02-04T00:44:28.899Z,8.50
2023-02-04T00:46:57.380Z,8.50
2023-02-04T00:49:24.401Z,8.50
2023-02-04T00:51:51.401Z,8.50
2023-02-04T00:54:18.255Z,8.40
2023-02-04T00:56:47.665Z,8.40
2023-02-04T00:59:14.637Z,8.40
2023-02-04T01:01:41.626Z,8.40
2023-02-04T01:04:08.490Z,8.30
2023-02-04T01:06:41.776Z,8.30
2023-02-04T01:09:08.739Z,8.30
2023-02-04T01:11:36.483Z,8.20
2023-02-04T01:14:03.338Z,8.20
2023-02-04T01:16:30.188Z,8.10
2023-02-04T01:18:57.040Z,8.10
2023-02-04T01:21:24.607Z,8.10
2023-02-04T01:23:54.097Z,8.10
2023-02-04T01:26:24.068Z,8.10
2023-02-04T01:28:51.429Z,8.00
2023-02-04T01:31:18.644Z,8.00
2023-02-04T01:33:45.573Z,8.00
2023-02-04T01:36:13.266Z,8.00
2023-02-04T01:38:40.035Z,7.90
2023-02-04T01:41:07.335Z,7.90
2023-02-04T01:43:37.192Z,7.90
2023-02-04T01:46:07.166Z,7.90
2023-02-04T01:48:36.931Z,7.90
2023-02-04T01:51:07.410Z,7.90
2023-02-04T01:53:35.855Z,7.90
2023-02-04T01:56:11.421Z,7.90
2023-02-04T01:58:41.751Z,7.90
2023-02-04T02:01:18.392Z,7.80
2023-02-04T02:03:45.245Z,7.90
2023-02-04T02:06:12.214Z,7.90
2023-02-04T02:08:39.288Z,7.90
2023-02-04T02:11:06.124Z,7.90
2023-02-04T02:13:32.978Z,7.80
2023-02-04T02:15:59.716Z,7.80
2023-02-04T02:18:26.556Z,7.80
2023-02-04T02:20:53.277Z,7.80
2023-02-04T02:23:46.198Z,7.80
2023-02-04T02:26:15.142Z,7.80
2023-02-04T02:28:45.243Z,7.70
2023-02-04T02:31:12.430Z,7.70
2023-02-04T02:33:39.224Z,7.70
2023-02-04T02:36:09.342Z,7.70
2023-02-04T02:38:36.611Z,7.60
2023-02-04T02:41:04.474Z,7.60
2023-02-04T02:43:31.892Z,7.60
2023-02-04T02:46:01.266Z,7.60
2023-02-04T02:48:28.119Z,7.50
2023-02-04T02:50:55.142Z,7.50
2023-02-04T02:53:22.245Z,7.50
2023-02-04T02:55:49.201Z,7.50
2023-02-04T02:58:34.519Z,7.50
2023-02-04T03:01:04.485Z,7.50
2023-02-04T03:03:34.519Z,7.50
2023-02-04T03:06:10.726Z,7.50
2023-02-04T03:08:44.965Z,7.40
2023-02-04T03:11:11.916Z,7.40
2023-02-04T03:13:39.653Z,7.30
2023-02-04T03:16:08.244Z,7.30
2023-02-04T03:18:36.674Z,7.30
2023-02-04T03:21:05.012Z,7.30
2023-02-04T03:23:33.991Z,7.20
2023-02-04T03:26:01.576Z,7.20
2023-02-04T03:28:28.476Z,7.20
2023-02-04T03:30:56.459Z,7.20
2023-02-04T03:33:31.905Z,7.20
2023-02-04T03:35:59.584Z,7.20
2023-02-04T03:38:26.839Z,7.30
2023-02-04T03:40:53.851Z,7.30
2023-02-04T03:43:20.647Z,7.30
2023-02-04T03:45:47.459Z,7.30
2023-02-04T03:48:14.329Z,7.30
2023-02-04T03:50:41.202Z,7.30
2023-02-04T03:53:08.186Z,7.30
2023-02-04T03:55:36.102Z,7.30
2023-02-04T03:58:03.988Z,7.30
2023-02-04T04:00:32.482Z,7.30
2023-02-04T04:03:00.428Z,7.30
2023-02-04T04:05:30.900Z,7.20
2023-02-04T04:07:57.927Z,7.20
2023-02-04T04:10:25.538Z,7.20
2023-02-04T04:12:52.262Z,7.10
2023-02-04T04:15:18.999Z,7.10
2023-02-04T04:17:46.009Z,7.10
2023-02-04T04:20:15.767Z,7.00
2023-02-04T04:22:42.655Z,7.00
2023-02-04T04:25:09.498Z,7.00
2023-02-04T04:27:36.292Z,6.90
2023-02-04T04:30:04.120Z,6.90
2023-02-04T04:32:30.888Z,6.80
2023-02-04T04:34:57.678Z,6.80
2023-02-04T04:37:24.460Z,6.70
2023-02-04T04:39:51.235Z,6.70
2023-02-04T04:42:18.025Z,6.70
2023-02-04T04:44:44.841Z,6.60
2023-02-04T04:47:11.710Z,6.60
2023-02-04T04:49:38.563Z,6.60
2023-02-04T04:52:05.472Z,6.60
2023-02-04T04:54:32.393Z,6.60
2023-02-04T04:56:59.163Z,6.60
2023-02-04T04:59:25.865Z,6.60
2023-02-04T05:01:52.687Z,6.70
2023-02-04T05:04:19.497Z,6.70
2023-02-04T05:06:46.345Z,6.70
2023-02-04T05:09:15.185Z,6.80
2023-02-04T05:11:41.963Z,6.80
2023-02-04T05:14:11.305Z,6.80
2023-02-04T05:16:38.328Z,6.90
2023-02-04T05:19:05.115Z,6.90
2023-02-04T05:21:31.901Z,6.90
2023-02-04T05:23:58.654Z,6.80
2023-02-04T05:26:30.829Z,6.90
2023-02-04T05:29:00.469Z,6.90
2023-02-04T05:31:30.830Z,6.80
2023-02-04T05:33:58.028Z,6.80
2023-02-04T05:36:25.125Z,6.80
2023-02-04T05:38:51.844Z,6.80
2023-02-04T05:41:18.530Z,6.70
2023-02-04T05:43:45.403Z,6.70
2023-02-04T05:46:12.271Z,6.70
2023-02-04T05:48:40.204Z,6.70
2023-02-04T05:51:07.203Z,6.70
2023-02-04T05:53:33.947Z,6.70
2023-02-04T05:56:00.704Z,6.70
2023-02-04T05:58:33.346Z,6.70
2023-02-04T06:01:01.635Z,6.70
2023-02-04T06:03:29.576Z,6.70
2023-02-04T06:05:56.879Z,6.80
2023-02-04T06:08:23.711Z,6.80
2023-02-04T06:10:50.546Z,6.80
2023-02-04T06:13:17.405Z,6.80
2023-02-04T06:15:44.330Z,6.80
2023-02-04T06:18:11.203Z,6.90
2023-02-04T06:20:38.043Z,6.90
2023-02-04T06:23:04.777Z,6.90
2023-02-04T06:25:31.645Z,6.90
2023-02-04T06:27:58.649Z,6.90
2023-02-04T06:30:25.361Z,6.90
2023-02-04T06:32:52.110Z,6.90
2023-02-04T06:35:18.991Z,7.00
2023-02-04T06:37:45.855Z,7.00
2023-02-04T06:40:13.002Z,7.00
2023-02-04T06:42:39.795Z,7.00
2023-02-04T06:45:07.168Z,7.00
2023-02-04T06:47:33.937Z,7.00
2023-02-04T06:50:00.790Z,7.00
2023-02-04T06:52:27.611Z,7.00
2023-02-04T06:54:59.996Z,7.10
2023-02-04T06:57:26.769Z,7.10
2023-02-04T06:59:56.553Z,7.10
2023-02-04T07:02:26.375Z,7.10
2023-02-04T07:04:53.199Z,7.10
2023-02-04T07:07:22.754Z,7.10
2023-02-04T07:09:49.757Z,7.10
2023-02-04T07:12:16.880Z,7.10
2023-02-04T07:14:43.656Z,7.20
2023-02-04T07:17:11.772Z,7.20
2023-02-04T07:19:38.972Z,7.20
2023-02-04T07:22:05.897Z,7.20
2023-02-04T07:24:35.405Z,7.20
2023-02-04T07:27:02.723Z,7.30
2023-02-04T07:29:29.582Z,7.30
2023-02-04T07:31:56.435Z,7.30
2023-02-04T07:34:26.173Z,7.30
2023-02-04T07:36:53.021Z,7.40
2023-02-04T07:39:19.928Z,7.40
2023-02-04T07:41:46.687Z,7.40
2023-02-04T07:44:13.401Z,7.40
2023-02-04T07:46:40.309Z,7.50
2023-02-04T07:49:07.252Z,7.50
2023-02-04T07:51:35.138Z,7.50
2023-02-04T07:54:04.899Z,7.50
2023-02-04T07:56:31.730Z,7.60
2023-02-04T07:59:01.541Z,7.60
2023-02-04T08:01:28.261Z,7.60
2023-02-04T08:03:55.040Z,7.70
2023-02-04T08:06:24.598Z,7.70
2023-02-04T08:08:51.276Z,7.70
2023-02-04T08:11:18.170Z,7.80
2023-02-04T08:13:44.882Z,7.80
2023-02-04T08:16:14.640Z,7.90
2023-02-04T08:18:41.742Z,7.90
2023-02-04T08:21:08.516Z,7.90
2023-02-04T08:23:35.485Z,8.00
2023-02-04T08:26:11.581Z,8.00
2023-02-04T08:28:38.629Z,8.10
2023-02-04T08:31:09.896Z,8.10
2023-02-04T08:33:36.690Z,8.10
2023-02-04T08:36:03.573Z,8.10
2023-02-04T08:38:32.668Z,8.20
2023-02-04T08:41:00.007Z,8.20
2023-02-04T08:43:27.128Z,8.30
2023-02-04T08:45:53.904Z,8.30
2023-02-04T08:48:20.649Z,8.40
2023-02-04T08:50:47.411Z,8.40
2023-02-04T08:53:14.192Z,8.50
2023-02-04T08:55:40.966Z,8.50
2023-02-04T08:58:07.807Z,8.60
2023-02-04T09:00:34.870Z,8.70
2023-02-04T09:03:02.139Z,8.70
2023-02-04T09:05:28.896Z,8.80
2023-02-04T09:07:55.714Z,8.90
2023-02-04T09:10:22.466Z,9.00
2023-02-04T09:12:49.394Z,9.10
2023-02-04T09:15:16.159Z,9.10
2023-02-04T09:18:15.032Z,9.20
2023-02-04T09:20:41.823Z,9.20
2023-02-04T09:23:10.560Z,9.30
2023-02-04T09:25:37.636Z,9.40
2023-02-04T09:28:04.754Z,9.50
2023-02-04T09:30:39.007Z,9.50
2023-02-04T09:33:05.969Z,9.60
2023-02-04T09:35:32.733Z,9.60
2023-02-04T09:37:59.484Z,9.70
2023-02-04T09:40:30.903Z,9.70
2023-02-04T09:42:58.998Z,9.70
2023-02-04T09:45:32.805Z,9.70
2023-02-04T09:48:04.120Z,9.80
2023-02-04T09:50:32.545Z,9.80
2023-02-04T09:53:06.969Z,9.80
2023-02-04T09:55:38.167Z,9.90
2023-02-04T09:58:19.549Z,9.90
2023-02-04T10:00:48.263Z,10.00
2023-02-04T10:03:26.289Z,10.00
2023-02-04T10:05:56.030Z,10.10
2023-02-04T10:08:29.440Z,10.20
2023-02-04T10:10:58.086Z,10.30
2023-02-04T10:13:32.680Z,10.40
2023-02-04T10:15:59.976Z,10.50
2023-02-04T10:18:33.505Z,10.60
2023-02-04T10:21:33.380Z,10.80
2023-02-04T10:24:02.733Z,10.90
2023-02-04T10:26:31.897Z,11.10
2023-02-04T10:29:04.023Z,11.20
2023-02-04T10:31:46.193Z,11.30
2023-02-04T10:34:21.216Z,11.30
2023-02-04T10:36:52.316Z,11.30
2023-02-04T10:39:20.179Z,11.30
2023-02-04T10:41:58.676Z,11.30
2023-02-04T10:44:36.174Z,11.30
2023-02-04T10:47:06.004Z,11.40
2023-02-04T10:49:33.322Z,11.50
2023-02-04T10:52:02.449Z,11.70
2023-02-04T10:54:37.523Z,11.70
2023-02-04T10:57:29.273Z,11.80
2023-02-04T11:00:02.042Z,11.80
2023-02-04T11:02:40.571Z,11.90
2023-02-04T11:05:17.256Z,12.00
2023-02-04T11:07:45.602Z,12.10
2023-02-04T11:10:18.516Z,12.10
2023-02-04T11:13:02.097Z,12.20
2023-02-04T11:16:11.738Z,12.20
2023-02-04T11:18:49.040Z,12.20
2023-02-04T11:21:26.537Z,12.30
2023-02-04T11:24:11.615Z,12.40
2023-02-04T11:26:42.624Z,12.40
2023-02-04T11:29:38.727Z,12.40
2023-02-04T11:32:24.461Z,12.40
2023-02-04T11:34:52.984Z,12.40
2023-02-04T11:37:34.721Z,12.40
2023-02-04T11:40:02.171Z,12.40
2023-02-04T11:42:42.997Z,12.40
2023-02-04T11:45:26.798Z,12.40
2023-02-04T11:47:54.211Z,12.50
2023-02-04T11:50:31.468Z,12.60
2023-02-04T11:53:02.409Z,12.60
2023-02-04T11:55:31.645Z,12.70
2023-02-04T11:58:01.854Z,12.80
2023-02-04T12:00:33.199Z,12.90
2023-02-04T12:03:11.927Z,12.90
2023-02-04T12:05:41.918Z,13.00
2023-02-04T12:08:33.100Z,13.10
2023-02-04T12:11:15.748Z,13.10
2023-02-04T12:13:49.678Z,13.20
2023-02-04T12:16:16.807Z,13.20
2023-02-04T12:18:43.568Z,13.30
2023-02-04T12:21:10.611Z,13.30
2023-02-04T12:23:37.550Z,13.40
2023-02-04T12:26:04.595Z,13.50
2023-02-04T12:28:31.491Z,13.60
2023-02-04T12:30:58.363Z,13.60
2023-02-04T12:33:25.362Z,13.70
2023-02-04T12:35:52.482Z,13.60
2023-02-04T12:38:20.662Z,13.60
2023-02-04T12:40:47.897Z,13.60
2023-02-04T12:43:14.765Z,13.60
2023-02-04T12:45:45.788Z,13.60
2023-02-04T12:48:14.051Z,13.50
2023-02-04T12:50:43.856Z,13.50
2023-02-04T12:53:10.740Z,13.50
2023-02-04T12:55:37.760Z,13.50
2023-02-04T12:58:04.993Z,13.50
2023-02-04T13:00:31.978Z,13.40
2023-02-04T13:02:59.220Z,13.40
2023-02-04T13:05:26.839Z,13.30
2023-02-04T13:07:54.170Z,13.30
2023-02-04T13:10:21.920Z,13.30
2023-02-04T13:12:48.964Z,13.30
2023-02-04T13:15:15.985Z,13.30
2023-02-04T13:17:43.250Z,13.20
2023-02-04T13:20:11.174Z,13.10
2023-02-04T13:22:37.999Z,13.10
2023-02-04T13:25:05.580Z,13.10
2023-02-04T13:27:32.463Z,13.10
2023-02-04T13:29:59.324Z,13.20
2023-02-04T13:32:26.266Z,13.20
2023-02-04T13:34:53.254Z,13.20
2023-02-04T13:37:20.031Z,13.30
2023-02-04T13:39:46.760Z,13.30
2023-02-04T13:42:13.594Z,13.30
2023-02-04T13:44:40.355Z,13.30
2023-02-04T13:47:07.162Z,13.40
2023-02-04T13:49:35.052Z,13.40
2023-02-04T13:52:01.775Z,13.40
2023-02-04T13:54:28.502Z,13.40
2023-02-04T13:56:55.349Z,13.40
2023-02-04T13:59:22.017Z,13.40
2023-02-04T14:01:48.792Z,13.40
2023-02-04T14:04:15.693Z,13.40
2023-02-04T14:06:45.268Z,13.40
2023-02-04T14:09:12.871Z,13.40
2023-02-04T14:11:42.933Z,13.40
2023-02-04T14:14:09.678Z,13.30
2023-02-04T14:16:37.972Z,13.40
2023-02-04T14:19:05.687Z,13.40
2023-02-04T14:21:33.052Z,13.30
2023-02-04T14:24:00.875Z,13.30
2023-02-04T14:26:27.669Z,13.30
2023-02-04T14:28:54.455Z,13.30
2023-02-04T14:31:21.274Z,13.30
2023-02-04T14:33:50.117Z,13.30
2023-02-04T14:36:17.225Z,13.20
2023-02-04T14:38:43.918Z,13.20
2023-02-04T14:41:11.657Z,13.10
2023-02-04T14:43:38.409Z,13.10
2023-02-04T14:46:08.139Z,13.10
2023-02-04T14:48:35.518Z,13.10
2023-02-04T14:51:02.259Z,13.00
2023-02-04T14:53:30.544Z,13.00
2023-02-04T14:55:57.505Z,13.00
2023-02-04T14:58:26.282Z,12.90
2023-02-04T15:00:54.364Z,12.90
2023-02-04T15:03:21.298Z,12.90
2023-02-04T15:05:48.119Z,12.80
2023-02-04T15:08:14.864Z,12.80
2023-02-04T15:10:41.742Z,12.80
2023-02-04T15:13:11.699Z,12.80
2023-02-04T15:15:38.480Z,12.70
2023-02-04T15:18:05.440Z,12.70
2023-02-04T15:20:32.633Z,12.70
2023-02-04T15:23:00.778Z,12.60
2023-02-04T15:25:27.870Z,12.60
2023-02-04T15:27:54.703Z,12.50
2023-02-04T15:30:21.479Z,12.50
2023-02-04T15:32:48.269Z,12.40
2023-02-04T15:35:15.152Z,12.40
2023-02-04T15:37:44.777Z,12.40
2023-02-04T15:40:12.092Z,12.30
2023-02-04T15:42:38.860Z,12.30
2023-02-04T15:45:06.574Z,12.30
2023-02-04T15:47:33.593Z,12.20
2023-02-04T15:50:00.447Z,12.20
2023-02-04T15:52:29.256Z,12.10
2023-02-04T15:54:56.317Z,12.10
2023-02-04T15:57:23.198Z,12.10
2023-02-04T15:59:49.896Z,12.00
2023-02-04T16:02:19.353Z,12.00
2023-02-04T16:04:47.924Z,12.00
2023-02-04T16:07:14.665Z,12.00
2023-02-04T16:09:41.614Z,11.90
2023-02-04T16:12:08.419Z,11.90
2023-02-04T16:14:38.285Z,11.90
2023-02-04T16:17:07.005Z,11.80
2023-02-04T16:19:34.379Z,11.80
2023-02-04T16:22:05.993Z,11.80
2023-02-04T16:24:35.802Z,11.80
2023-02-04T16:27:02.815Z,11.70
2023-02-04T16:29:32.619Z,11.70
2023-02-04T16:31:59.521Z,11.70
2023-02-04T16:34:26.326Z,11.70
2023-02-04T16:36:53.003Z,11.60
2023-02-04T16:39:19.783Z,11.60
2023-02-04T16:41:46.500Z,11.60
2023-02-04T16:44:15.984Z,11.60
2023-02-04T16:46:42.885Z,11.50
2023-02-04T16:49:09.906Z,11.50
2023-02-04T16:51:36.834Z,11.50
2023-02-04T16:54:03.609Z,11.40
2023-02-04T16:56:35.266Z,11.40
2023-02-04T16:59:03.237Z,11.30
2023-02-04T17:01:30.402Z,11.30
2023-02-04T17:03:59.961Z,11.30
2023-02-04T17:06:27.946Z,11.20
2023-02-04T17:08:55.090Z,11.20
2023-02-04T17:11:31.858Z,11.20
2023-02-04T17:14:01.688Z,11.20
2023-02-04T17:16:29.966Z,11.20
2023-02-04T17:18:56.841Z,11.10
2023-02-04T17:21:25.990Z,11.10
2023-02-04T17:23:53.177Z,11.10
2023-02-04T17:26:20.014Z,11.00
2023-02-04T17:28:47.221Z,11.00
2023-02-04T17:31:14.121Z,11.00
2023-02-04T17:33:41.084Z,10.90
2023-02-04T17:36:08.449Z,10.90
2023-02-04T17:38:35.290Z,10.80
2023-02-04T17:41:02.674Z,10.80
2023-02-04T17:43:29.565Z,10.70
2023-02-04T17:45:56.334Z,10.70
2023-02-04T17:48:23.118Z,10.60
2023-02-04T17:50:49.942Z,10.60
2023-02-04T17:53:16.641Z,10.50
2023-02-04T17:55:43.420Z,10.40
2023-02-04T17:58:19.687Z,10.40
2023-02-04T18:00:48.063Z,10.40
2023-02-04T18:03:18.525Z,10.40
2023-02-04T18:05:51.650Z,10.30
2023-02-04T18:08:24.478Z,10.30
2023-02-04T18:10:53.489Z,10.30
2023-02-04T18:13:40.457Z,10.20
2023-02-04T18:16:19.534Z,10.20
2023-02-04T18:18:46.259Z,10.20
2023-02-04T18:21:28.849Z,10.20
2023-02-04T18:24:51.082Z,10.20
2023-02-04T18:27:24.685Z,10.20
2023-02-04T18:29:59.156Z,10.10
2023-02-04T18:32:40.115Z,10.10
2023-02-04T18:35:25.363Z,10.10
2023-02-04T18:37:53.163Z,10.10
2023-02-04T18:40:28.121Z,10.10
2023-02-04T18:43:10.059Z,10.00
2023-02-04T18:45:37.219Z,10.00
2023-02-04T18:48:16.376Z,9.90
2023-02-04T18:50:44.431Z,10.00
2023-02-04T18:53:11.091Z,10.00
2023-02-04T18:55:43.551Z,9.90
2023-02-04T18:58:34.067Z,9.90
2023-02-04T19:01:27.617Z,9.90
2023-02-04T19:04:17.667Z,9.90
2023-02-04T19:06:46.495Z,9.90
2023-02-04T19:09:13.529Z,9.90
2023-02-04T19:11:48.880Z,9.90
2023-02-04T19:14:43.792Z,9.90
2023-02-04T19:17:26.837Z,9.90
2023-02-04T19:20:00.569Z,9.80
2023-02-04T19:22:58.061Z,9.80
2023-02-04T19:25:37.902Z,9.80
2023-02-04T19:28:30.037Z,9.80
2023-02-04T19:31:01.379Z,9.80
2023-02-04T19:33:43.568Z,9.80
2023-02-04T19:36:30.630Z,9.80
2023-02-04T19:39:19.873Z,9.80
2023-02-04T19:41:52.116Z,9.80
2023-02-04T19:44:33.757Z,9.80
2023-02-04T19:47:25.915Z,9.80
2023-02-04T19:50:02.286Z,9.80
2023-02-04T19:52:37.412Z,9.80
2023-02-04T19:55:25.069Z,9.80
2023-02-04T19:57:59.292Z,9.80
2023-02-04T20:00:34.706Z,9.80
2023-02-04T20:03:11.963Z,9.80
2023-02-04T20:05:38.729Z,9.80
2023-02-04T20:08:40.134Z,9.80
2023-02-04T20:11:33.781Z,9.80
2023-02-04T20:14:15.848Z,9.80
2023-02-04T20:17:16.909Z,9.80
2023-02-04T20:19:44.647Z,9.80
2023-02-04T20:22:26.283Z,9.80
2023-02-04T20:24:59.204Z,9.80
2023-02-04T20:27:36.616Z,9.80
2023-02-04T20:30:11.637Z,9.70
2023-02-04T20:32:56.084Z,9.70
2023-02-04T20:35:22.757Z,9.60
2023-02-04T20:37:59.501Z,9.60
2023-02-04T20:40:35.597Z,9.60
2023-02-04T20:43:06.292Z,9.60
2023-02-04T20:45:37.597Z,9.60
2023-02-04T20:48:16.256Z,9.60
2023-02-04T20:50:58.448Z,9.60
2023-02-04T20:53:36.784Z,9.60
2023-02-04T20:56:23.606Z,9.60
2023-02-04T20:58:53.800Z,9.60
2023-02-04T21:01:33.800Z,9.60
2023-02-04T21:04:18.546Z,9.50
2023-02-04T21:06:48.425Z,9.50
2023-02-04T21:09:43.703Z,9.50
2023-02-04T21:12:10.759Z,9.50
2023-02-04T21:14:37.668Z,9.50
2023-02-04T21:17:07.520Z,9.50
2023-02-04T21:19:35.325Z,9.50
2023-02-04T21:22:02.482Z,9.50
2023-02-04T21:24:31.875Z,9.50
2023-02-04T21:26:58.807Z,9.50
2023-02-04T21:29:26.105Z,9.50
2023-02-04T21:31:54.806Z,9.50
2023-02-04T21:34:21.676Z,9.50
2023-02-04T21:36:48.541Z,9.50
2023-02-04T21:39:15.632Z,9.50
2023-02-04T21:41:42.549Z,9.50
2023-02-04T21:44:09.318Z,9.40
2023-02-04T21:46:36.185Z,9.40
2023-02-04T21:49:05.975Z,9.40
2023-02-04T21:51:32.748Z,9.40
2023-02-04T21:54:00.824Z,9.40
2023-02-04T21:56:27.691Z,9.40
2023-02-04T21:58:54.387Z,9.30
2023-02-04T22:01:23.498Z,9.30
2023-02-04T22:03:50.271Z,9.30
2023-02-04T22:06:17.175Z,9.20
2023-02-04T22:08:43.921Z,9.20
2023-02-04T22:11:10.784Z,9.20
2023-02-04T22:13:37.520Z,9.20
2023-02-04T22:16:04.378Z,9.20
2023-02-04T22:18:37.057Z,9.20
2023-02-04T22:21:03.878Z,9.20
2023-02-04T22:23:30.602Z,9.20
2023-02-04T22:25:57.429Z,9.20
2023-02-04T22:28:24.232Z,9.20
2023-02-04T22:30:53.283Z,9.20
2023-02-04T22:33:20.865Z,9.20
2023-02-04T22:35:48.531Z,9.20
2023-02-04T22:38:15.473Z,9.20
2023-02-04T22:40:42.505Z,9.30
2023-02-04T22:43:09.261Z,9.30
2023-02-04T22:45:36.127Z,9.30
2023-02-04T22:48:03.060Z,9.30
2023-02-04T22:50:29.863Z,9.30
2023-02-04T22:52:56.648Z,9.30
2023-02-04T22:55:23.464Z,9.30
2023-02-04T22:57:50.141Z,9.30
2023-02-04T23:00:17.656Z,9.40
2023-02-04T23:02:44.479Z,9.40
2023-02-04T23:05:11.203Z,9.40
2023-02-04T23:07:40.640Z,9.40
2023-02-04T23:10:08.015Z,9.40
2023-02-04T23:12:34.753Z,9.40
2023-02-04T23:15:01.562Z,9.40
2023-02-04T23:17:31.021Z,9.40
2023-02-04T23:19:57.804Z,9.40
2023-02-04T23:22:24.934Z,9.40
2023-02-04T23:24:51.765Z,9.40
2023-02-04T23:27:21.690Z,9.40
2023-02-04T23:29:48.479Z,9.40
2023-02-04T23:32:15.434Z,9.40
2023-02-04T23:34:42.287Z,9.40
2023-02-04T23:37:09.137Z,9.40
2023-02-04T23:39:38.926Z,9.40
2023-02-04T23:42:05.754Z,9.40
2023-02-04T23:44:32.624Z,9.40
2023-02-04T23:46:59.434Z,9.40
2023-02-04T23:49:26.104Z,9.40
2023-02-04T23:51:52.898Z,9.30
2023-02-04T23:54:19.715Z,9.30
2023-02-04T23:56:46.601Z,9.30
2023-02-04T23:59:13.303Z,9.30
